createdAt,value
2023-03-24T00:31:21.220Z,92.80
2023-03-24T00:37:15.684Z,90.90
2023-03-24T00:40:21.714Z,98.70
2023-03-24T03:02:24.981Z,60.90
2023-03-24T03:05:14.015Z,51.90
2023-03-24T03:07:42.420Z,57.90
2023-03-24T03:10:41.124Z,46.30
2023-03-24T03:14:20.130Z,35.80
2023-03-24T03:17:56.690Z,47.60
2023-03-24T03:25:31.700Z,39.30
2023-03-24T03:36:33.433Z,45.50
2023-03-24T04:03:27.753Z,46.00
2023-03-24T04:06:50.467Z,42.30
2023-03-24T04:09:27.943Z,68.80
2023-03-24T04:12:37.682Z,46.40
2023-03-24T04:15:42.020Z,42.60
2023-03-24T04:28:27.525Z,43.30
2023-03-24T04:31:56.196Z,35.50
2023-03-24T04:35:01.295Z,51.00
2023-03-24T04:37:53.420Z,37.60
2023-03-24T04:40:36.604Z,45.20
2023-03-24T04:43:13.223Z,45.50
2023-03-24T04:46:16.430Z,44.10
2023-03-24T04:49:14.585Z,39.70
2023-03-24T04:51:44.200Z,36.20
2023-03-24T04:54:28.364Z,39.00
2023-03-24T04:57:06.052Z,42.40
2023-03-24T04:59:46.118Z,40.00
2023-03-24T05:02:15.195Z,38.70
2023-03-24T05:05:11.490Z,39.60
2023-03-24T05:07:49.136Z,41.50
2023-03-24T05:10:19.022Z,44.10
2023-03-24T05:12:58.807Z,36.40
2023-03-24T05:15:52.456Z,34.40
2023-03-24T05:18:35.888Z,39.30
2023-03-24T05:33:56.992Z,34.20
2023-03-24T05:44:58.601Z,32.50
2023-03-24T05:47:39.204Z,38.10
2023-03-24T05:50:21.417Z,39.50
2023-03-24T05:53:29.156Z,36.80
2023-03-24T05:56:20.931Z,34.90
2023-03-24T06:09:40.883Z,27.00
2023-03-24T06:12:11.220Z,31.10
2023-03-24T06:14:40.408Z,27.80
2023-03-24T06:20:19.347Z,24.60
2023-03-24T06:23:10.447Z,24.30
2023-03-24T06:26:46.400Z,22.60
2023-03-24T06:33:08.213Z,25.60
2023-03-24T07:32:21.757Z,18.40
2023-03-24T07:34:53.652Z,21.00
2023-03-24T07:37:27.774Z,22.10
2023-03-24T07:40:01.793Z,28.30
2023-03-24T07:42:33.502Z,24.70
2023-03-24T07:45:34.738Z,23.80
2023-03-24T07:48:05.840Z,19.30
2023-03-24T07:58:33.693Z,15.30
2023-03-24T08:09:31.901Z,11.50
2023-03-24T08:12:04.364Z,11.90
2023-03-24T08:14:44.971Z,9.50
2023-03-24T08:17:13.178Z,14.30
2023-03-24T08:19:58.988Z,14.80
2023-03-24T08:22:56.863Z,18.40
2023-03-24T08:34:00.631Z,16.00
2023-03-24T08:36:35.529Z,15.30
2023-03-24T08:39:06.075Z,10.30
2023-03-24T08:41:36.258Z,12.60
2023-03-24T08:44:07.358Z,11.00
2023-03-24T08:46:35.303Z,13.20
2023-03-24T08:49:16.572Z,13.40
2023-03-24T08:58:24.358Z,14.50
2023-03-24T09:00:55.451Z,11.20
2023-03-24T09:03:24.543Z,13.10
2023-03-24T09:05:56.735Z,16.40
2023-03-24T09:08:24.546Z,9.00
2023-03-24T09:10:52.911Z,13.60
2023-03-24T09:13:20.872Z,14.10
2023-03-24T09:15:56.354Z,15.50
2023-03-24T09:19:15.587Z,15.00
2023-03-24T09:21:45.161Z,10.70
2023-03-24T09:24:15.200Z,22.70
2023-03-24T09:26:43.078Z,16.00
2023-03-24T09:29:10.931Z,12.30
2023-03-24T09:31:40.766Z,11.00
2023-03-24T09:34:08.280Z,13.70
2023-03-24T09:36:37.885Z,12.90
2023-03-24T09:39:15.017Z,12.30
2023-03-24T09:41:47.592Z,9.00
2023-03-24T09:44:45.222Z,7.40
2023-03-24T10:03:25.652Z,10.20
2023-03-24T10:06:05.411Z,10.50
2023-03-24T10:08:54.783Z,8.50
2023-03-24T10:11:35.341Z,8.20
2023-03-24T10:16:57.376Z,9.20
2023-03-24T10:19:44.198Z,8.70
2023-03-24T10:23:00.574Z,8.20
2023-03-24T10:25:41.055Z,9.50
2023-03-24T10:28:35.170Z,13.50
2023-03-24T10:33:54.130Z,7.70
2023-03-24T10:36:34.506Z,8.70
2023-03-24T10:39:44.773Z,12.80
2023-03-24T10:42:27.458Z,9.70
2023-03-24T10:48:48.239Z,8.80
2023-03-24T10:53:50.880Z,8.50
2023-03-24T10:56:39.337Z,9.90
2023-03-24T10:59:33.350Z,9.20
2023-03-24T11:02:10.113Z,12.50
2023-03-24T11:04:40.202Z,7.70
2023-03-24T11:07:19.938Z,6.90
2023-03-24T11:10:01.384Z,9.70
2023-03-24T11:12:38.110Z,8.20
2023-03-24T11:15:22.012Z,9.50
2023-03-24T11:17:57.044Z,8.70
2023-03-24T11:20:41.138Z,8.90
2023-03-24T11:23:13.577Z,8.50
2023-03-24T11:25:43.694Z,6.60
2023-03-24T11:28:23.474Z,10.50
2023-03-24T11:30:54.334Z,8.60
2023-03-24T11:33:36.446Z,8.00
2023-03-24T11:39:38.592Z,7.40
2023-03-24T11:42:18.689Z,11.70
2023-03-24T11:44:51.745Z,8.30
2023-03-24T11:47:33.558Z,8.40
2023-03-24T11:50:10.486Z,8.10
2023-03-24T11:52:49.052Z,13.10
2023-03-24T11:55:28.511Z,10.60
2023-03-24T11:58:02.149Z,8.80
2023-03-24T12:01:03.796Z,10.70
2023-03-24T12:03:51.757Z,8.00
2023-03-24T12:07:08.713Z,5.70
2023-03-24T12:09:51.644Z,8.80
2023-03-24T12:12:43.185Z,7.90
2023-03-24T12:15:27.394Z,5.60
2023-03-24T12:18:02.470Z,10.30
2023-03-24T12:20:37.368Z,14.30
2023-03-24T12:23:07.082Z,10.20
2023-03-24T12:25:58.529Z,6.70
2023-03-24T12:28:54.866Z,13.50
2023-03-24T12:31:52.439Z,6.70
2023-03-24T12:37:13.569Z,9.40
2023-03-24T12:39:56.939Z,12.70
2023-03-24T12:42:24.481Z,10.30
2023-03-24T12:45:31.735Z,6.80
2023-03-24T12:48:21.083Z,13.80
2023-03-24T12:51:13.384Z,10.70
2023-03-24T12:54:05.937Z,10.70
2023-03-24T12:56:48.146Z,8.30
2023-03-24T12:59:48.359Z,9.00
2023-03-24T13:02:28.267Z,10.30
2023-03-24T13:05:08.975Z,9.90
2023-03-24T13:07:46.888Z,11.80
2023-03-24T13:10:39.958Z,6.60
2023-03-24T13:13:23.617Z,8.90
2023-03-24T13:15:56.873Z,9.30
2023-03-24T13:19:01.744Z,15.00
2023-03-24T13:24:33.306Z,11.20
2023-03-24T13:27:39.673Z,10.00
2023-03-24T13:30:52.469Z,6.90
2023-03-24T13:33:56.391Z,9.30
2023-03-24T13:36:59.866Z,14.30
2023-03-24T13:39:30.692Z,9.80
2023-03-24T13:41:58.794Z,11.80
2023-03-24T13:44:38.702Z,11.90
2023-03-24T13:47:16.430Z,8.10
2023-03-24T13:50:12.278Z,9.00
2023-03-24T13:52:48.983Z,14.20
2023-03-24T13:55:30.228Z,12.60
2023-03-24T13:58:01.262Z,11.30
2023-03-24T14:41:46.969Z,13.30
2023-03-24T14:44:16.211Z,10.00
2023-03-24T14:46:47.460Z,10.70
2023-03-24T14:49:37.483Z,11.20
2023-03-24T14:52:14.050Z,15.90
2023-03-24T14:54:51.188Z,12.30
2023-03-24T14:57:41.607Z,14.40
2023-03-24T15:01:08.146Z,15.50
2023-03-24T20:59:32.676Z,31.70
2023-03-24T21:09:36.277Z,23.40
2023-03-24T21:12:36.163Z,25.70
2023-03-24T21:16:51.675Z,27.80
2023-03-24T21:25:46.451Z,25.40
2023-03-24T21:28:20.435Z,25.10
2023-03-24T21:30:58.823Z,28.70
2023-03-24T21:33:28.481Z,24.00
2023-03-24T21:42:30.324Z,26.50
2023-03-24T21:44:57.687Z,19.00
2023-03-24T21:47:34.585Z,24.60
2023-03-24T21:50:12.211Z,27.80
2023-03-24T21:53:00.396Z,29.50
2023-03-24T21:55:28.204Z,23.60
2023-03-24T21:57:56.438Z,22.50
2023-03-24T22:00:44.995Z,25.00
2023-03-24T22:06:37.704Z,24.80
2023-03-24T22:12:15.624Z,24.30
2023-03-24T22:15:24.514Z,23.30
2023-03-24T22:18:13.183Z,22.00
2023-03-24T22:25:01.079Z,21.50
2023-03-24T22:31:00.508Z,22.70
2023-03-24T22:37:00.956Z,27.10
2023-03-24T22:42:29.955Z,25.00
2023-03-24T22:44:58.254Z,18.00
2023-03-24T22:47:30.130Z,23.90
2023-03-24T22:50:42.560Z,18.50
2023-03-24T22:53:40.736Z,24.30
2023-03-24T22:56:31.635Z,23.00
2023-03-24T22:59:11.516Z,23.40
2023-03-24T23:05:10.634Z,22.60
2023-03-24T23:11:59.381Z,23.50
2023-03-24T23:14:31.502Z,25.20
2023-03-24T23:21:11.022Z,21.20
2023-03-24T23:24:18.158Z,24.00
2023-03-24T23:27:11.837Z,25.80
2023-03-24T23:30:01.255Z,26.50
2023-03-24T23:32:37.914Z,24.20
2023-03-24T23:50:06.241Z,25.10
2023-03-24T23:53:15.012Z,25.30
2023-03-24T23:56:01.777Z,19.60
2023-03-24T23:59:25.406Z,21.80
